• Join FlightAware (Why Join?)
  • Login
  • US Flag 
05:10PM EDT


 

Airport Tracker/Info


-or-


 

Live Flight TrackerFlight Track Log ✈ QFA1051 ✈ 08-May-2013 ✈ YBRM / BME - YMML / MEL

Flight Track Log - Related Links

Times and Time Zones

All times are in EDT time to prevent confusion due to time zone crossing. See the QFA1051 flight status page for this flight to view local times or setup timezone preferences in your user account.

Time Position Orientation Groundspeed Altitude Reporting Facility
EDT Latitude Longitude Course Direction KTS MPH feet Rate Location/Type
12:19AM -17.9496 122.2277 143° Southeast 37,000  Level Aus ATC (Calculated)
12:20AM -18.0673 122.3165 143° Southeast 37,000  Level Aus ATC (Calculated)
12:22AM -18.1763 122.3989 144° Southeast  Level FlightAware Approximate
12:23AM -18.2800 122.4774 144° Southeast  Level FlightAware Approximate
12:23AM -18.2953 122.4889 143° Southeast 37,000  Level Aus ATC (Calculated)
12:23AM -18.3487 122.5294 143° Southeast 37,000  Level Aus ATC (Calculated)
12:25AM -18.4566 122.6113 144° Southeast  Level FlightAware Approximate
12:25AM -18.4538 122.6092 143° Southeast 37,000  Level Aus ATC (Calculated)
12:26AM -18.6065 122.7253 143° Southeast 37,000  Level Aus ATC (Calculated)
12:28AM -18.7681 122.8484 144° Southeast  Level FlightAware Approximate
12:28AM -18.8004 122.8731 143° Southeast 37,000  Level Aus ATC (Calculated)
12:29AM -18.8913 122.9425 143° Southeast 37,000  Level Aus ATC (Calculated)
12:30AM -18.9396 122.9794 144° Southeast  Level FlightAware Approximate
12:30AM -19.0233 123.0435 143° Southeast 37,000  Level Aus ATC (Calculated)
12:31AM -19.0233 123.0435 143° Southeast 37,000  Level Aus ATC (Calculated)
12:32AM -19.1490 123.1399 143° Southeast 37,000  Level Aus ATC (Calculated)
12:32AM -19.1490 123.1399 143° Southeast 37,000  Level Aus ATC (Calculated)
12:34AM -19.3120 123.2652 144° Southeast  Level FlightAware Approximate
12:34AM -19.4608 123.3797 143° Southeast 37,000  Level Aus ATC (Calculated)
12:35AM -19.4149 123.3444 144° Southeast  Level FlightAware Approximate
12:35AM -19.5308 123.4337 142° Southeast 37,000  Level Aus ATC (Calculated)
12:37AM -19.7022 123.5662 144° Southeast  Level FlightAware Approximate
12:38AM -19.8050 123.6458 144° Southeast  Level FlightAware Approximate
12:38AM -19.8021 123.6435 142° Southeast 37,000  Level Aus ATC (Calculated)
12:39AM -19.9207 123.7355 142° Southeast 37,000  Level Aus ATC (Calculated)
12:40AM -19.9819 123.7831 144° Southeast  Level FlightAware Approximate
12:41AM -20.0720 123.8532 144° Southeast  Level FlightAware Approximate
12:42AM -20.1751 123.9335 144° Southeast  Level FlightAware Approximate
12:42AM -20.2453 123.9883 142° Southeast 37,000  Level Aus ATC (Calculated)
12:43AM -20.3360 124.0592 142° Southeast 37,000  Level Aus ATC (Calculated)
12:45AM -20.5180 124.2017 144° Southeast  Level FlightAware Approximate
12:46AM -20.6210 124.2825 144° Southeast  Level FlightAware Approximate
12:47AM -20.7239 124.3635 144° Southeast  Level FlightAware Approximate
12:47AM -20.7185 124.3592 142° Southeast 37,000  Level Aus ATC (Calculated)
12:48AM -20.8214 124.4403 144° Southeast  Level FlightAware Approximate
12:48AM -20.8406 124.4554 142° Southeast 37,000  Level Aus ATC (Calculated)
12:49AM -20.9474 124.5397 142° Southeast 37,000  Level Aus ATC (Calculated)
12:51AM -21.1331 124.6866 144° Southeast  Level FlightAware Approximate
12:52AM -21.2392 124.7707 144° Southeast  Level FlightAware Approximate
12:53AM -21.3452 124.8550 144° Southeast  Level FlightAware Approximate
12:53AM -21.3208 124.8356 142° Southeast 37,000  Level Aus ATC (Calculated)
12:55AM -21.5038 124.9813 143° Southeast  Level FlightAware Approximate
12:56AM -21.6064 125.0632 143° Southeast  Level FlightAware Approximate
12:56AM -21.6005 125.0584 142° Southeast 37,000  Level Aus ATC (Calculated)
12:57AM -21.7030 125.1404 143° Southeast  Level FlightAware Approximate
12:57AM -21.6936 125.1329 142° Southeast 39,000  Level Aus ATC (Calculated)
12:59AM -21.4423 125.1329 North  Level FlightAware Approximate
01:00AM -21.5701 125.1329 180° South  Level FlightAware Approximate
01:01AM -21.6978 125.1329 180° South  Level FlightAware Approximate
01:01AM -22.2176 125.5530 141° Southeast 39,000  Level Aus ATC (Calculated)
01:01AM -22.2176 125.5530 141° Southeast 39,000  Level Aus ATC (Calculated)
01:02AM -21.5701 125.1329 North  Level FlightAware Approximate
01:03AM -22.1015 125.4596 323° Northwest  Level FlightAware Approximate
01:04AM -21.9990 125.3773 323° Northwest  Level FlightAware Approximate
01:05AM -22.5115 125.8469 143° Southeast  Level Estimated
01:06AM -22.6168 125.9254 145° Southeast  Level FlightAware Approximate
01:06AM -22.7927 126.0188 141° Southeast 39,000  Level Aus ATC (Calculated)
01:07AM -22.7220 126.0039 145° Southeast  Level FlightAware Approximate
01:08AM -22.9000 126.1062 143° Southeast  Level FlightAware Approximate
01:09AM -23.0021 126.1896 143° Southeast  Level FlightAware Approximate
01:09AM -23.0537 126.2317 141° Southeast 39,000  Level Aus ATC (Calculated)
01:09AM -23.0537 126.2317 141° Southeast 39,000  Level Aus ATC (Calculated)
01:11AM -23.2526 126.3949 143° Southeast  Level FlightAware Approximate
01:11AM -23.3143 126.4455 141° Southeast 39,000  Level Aus ATC (Calculated)
01:12AM -23.3664 126.4884 141° Southeast 39,000  Level Aus ATC (Calculated)
01:13AM -23.4923 126.5922 141° Southeast 39,000  Level Aus ATC (Calculated)
01:15AM -23.2892 126.4249 323° Northwest  Level FlightAware Approximate
01:16AM -23.3916 126.5092 143° Southeast  Level FlightAware Approximate
01:16AM -23.8694 126.9046 140° Southeast 39,000  Level Aus ATC (Calculated)
01:18AM -23.7093 126.7717 323° Northwest  Level FlightAware Approximate
01:19AM -23.6070 126.6870 323° Northwest  Level FlightAware Approximate
01:20AM -23.5047 126.6024 323° Northwest  Level FlightAware Approximate
01:20AM -24.3086 127.2714 140° Southeast 39,000  Level Aus ATC (Calculated)
01:22AM -24.1233 127.1162 323° Northwest  Level FlightAware Approximate
01:23AM -24.2156 127.2140 143° Southeast  Level Estimated
01:24AM -24.3235 127.2902 147° Southeast  Level FlightAware Approximate
01:25AM -24.4314 127.3666 147° Southeast  Level FlightAware Approximate
01:25AM -24.7868 127.6745 140° Southeast 39,000  Level Aus ATC (Calculated)
01:26AM -24.3235 127.2902 327° Northwest  Level FlightAware Approximate
01:26AM -24.9647 127.8255 140° Southeast 39,000  Level Aus ATC (Calculated)
01:27AM -24.6002 127.5168 322° Northwest  Level FlightAware Approximate
01:28AM -24.8325 127.7132 322° Northwest  Level FlightAware Approximate
01:28AM -25.1423 127.9769 140° Southeast 39,000  Level Aus ATC (Calculated)
01:28AM -25.1423 127.9769 140° Southeast 39,000  Level Aus ATC (Calculated)
01:30AM -24.9892 127.8464 322° Northwest  Level FlightAware Approximate
01:30AM -25.3790 128.1794 139° Southeast 39,000  Level Aus ATC (Calculated)
01:31AM -24.8871 127.7596 322° Northwest  Level FlightAware Approximate
01:32AM -25.4975 128.3106 143° Southeast  Level Estimated
01:33AM -25.6010 128.3958 143° Southeast  Level FlightAware Approximate
01:33AM -25.6744 128.4336 139° Southeast 39,000  Level Aus ATC (Calculated)
01:35AM -25.8371 128.5744 142° Southeast  Level FlightAware Approximate
01:35AM -25.8514 128.5868 139° Southeast 39,000  Level Aus ATC (Calculated)
01:37AM -26.0225 128.7353 142° Southeast  Level FlightAware Approximate
01:37AM -26.0872 128.7917 139° Southeast 39,000  Level Aus ATC (Calculated)
01:39AM -26.2834 128.9630 142° Southeast  Level FlightAware Approximate
01:40AM -26.1819 128.8743 322° Northwest  Level FlightAware Approximate
01:41AM -26.2834 128.9630 142° Southeast  Level FlightAware Approximate
01:42AM -26.1819 128.8743 322° Northwest  Level FlightAware Approximate
01:42AM -26.5457 129.2224 139° Southeast 39,000  Level Aus ATC (Calculated)
01:44AM -26.3569 129.0370 319° Northwest  Level FlightAware Approximate
01:45AM -26.2600 128.9421 319° Northwest  Level FlightAware Approximate
01:46AM -26.3568 129.0371 139° Southeast  Level FlightAware Approximate
01:47AM -26.2600 128.9421 319° Northwest  Level FlightAware Approximate
01:47AM -27.1078 129.7795 138° Southeast 39,000  Level Aus ATC (Calculated)
01:49AM -26.9153 129.5879 318° Northwest  Level FlightAware Approximate
01:50AM -26.8165 129.4899 318° Northwest  Level FlightAware Approximate
01:51AM -26.9079 129.5966 139° Southeast  Level Estimated
01:52AM -27.0070 129.6942 139° Southeast  Level FlightAware Approximate
01:52AM -27.5978 130.2715 138° Southeast 39,000  Level Aus ATC (Calculated)
01:54AM -27.7866 130.4627 138° Southeast  Level FlightAware Approximate
01:54AM -27.8770 130.5546 138° Southeast 39,000  Level Aus ATC (Calculated)
01:55AM -27.8825 130.5602 138° Southeast  Level FlightAware Approximate
01:56AM -27.9824 130.6620 138° Southeast  Level FlightAware Approximate
01:56AM -28.0164 130.6967 138° Southeast 39,000  Level Aus ATC (Calculated)
01:56AM -28.0860 130.7679 138° Southeast 39,000  Level Aus ATC (Calculated)
01:56AM -28.0860 130.7679 138° Southeast 39,000  Level Aus ATC (Calculated)
01:58AM -28.1865 130.8708 138° Southeast  Level FlightAware Approximate
01:59AM -28.2821 130.9690 138° Southeast  Level FlightAware Approximate
01:59AM -28.2947 130.9820 138° Southeast 39,000  Level Aus ATC (Calculated)
01:59AM -28.3642 131.0535 138° Southeast 39,000  Level Aus ATC (Calculated)
02:00AM -28.4336 131.1252 138° Southeast 39,000  Level Aus ATC (Calculated)
02:00AM -28.4336 131.1252 138° Southeast 39,000  Level Aus ATC (Calculated)
02:02AM -28.5735 131.2699 138° Southeast  Level FlightAware Approximate
02:03AM -28.4781 131.1712 318° Northwest  Level FlightAware Approximate
02:03AM -28.7221 131.4243 138° Southeast 39,000  Level Aus ATC (Calculated)
02:03AM -28.7221 131.4243 138° Southeast 39,000  Level Aus ATC (Calculated)
02:05AM -28.5490 131.2445 318° Northwest  Level FlightAware Approximate
02:06AM -28.4536 131.1458 318° Northwest  Level FlightAware Approximate
02:07AM -28.5490 131.2445 138° Southeast  Level FlightAware Approximate
02:07AM -29.0865 131.8055 137° Southeast 39,000  Level Aus ATC (Calculated)
02:09AM -28.8980 131.6078 317° Northwest  Level FlightAware Approximate
02:10AM -28.8029 131.5085 318° Northwest  Level FlightAware Approximate
02:10AM -29.3771 132.1123 137° Southeast 39,000  Level Aus ATC (Calculated)
02:11AM -29.5222 132.2664 137° Southeast 39,000  Level Aus ATC (Calculated)
02:12AM -29.2129 131.9386 317° Northwest  Level FlightAware Approximate
02:12AM -29.5947 132.3436 137° Southeast 39,000  Level Aus ATC (Calculated)
02:14AM -29.4417 132.1808 317° Northwest  Level FlightAware Approximate
02:15AM -29.3470 132.0804 317° Northwest  Level FlightAware Approximate
02:15AM -29.8841 132.6535 137° Southeast 39,000  Level Aus ATC (Calculated)
02:17AM -29.7197 132.4771 317° Northwest  Level FlightAware Approximate
02:18AM -29.8039 132.5887 138° Southeast  Level Estimated
02:19AM -29.8986 132.6885 138° Southeast  Level FlightAware Approximate
02:19AM -30.2448 133.0434 137° Southeast 39,000  Level Aus ATC (Calculated)
02:20AM -30.3887 133.2001 137° Southeast 39,000  Level Aus ATC (Calculated)
02:22AM -30.5522 133.3789 137° Southeast  Level FlightAware Approximate
02:23AM -30.6454 133.4813 137° Southeast  Level FlightAware Approximate
02:24AM -30.7386 133.5839 137° Southeast  Level FlightAware Approximate
02:24AM -30.7477 133.5940 137° Southeast 39,000  Level Aus ATC (Calculated)
02:25AM -30.8409 133.6968 137° Southeast  Level FlightAware Approximate
02:26AM -30.7477 133.5940 316° Northwest  Level FlightAware Approximate
02:27AM -30.8409 133.6968 137° Southeast  Level FlightAware Approximate
02:28AM -30.7477 133.5940 316° Northwest  Level FlightAware Approximate
02:28AM -31.1681 134.0607 136° Southeast 39,000  Level Aus ATC (Calculated)
02:29AM -30.8409 133.6968 137° Southeast  Level FlightAware Approximate
02:30AM -31.0737 133.9554 316° Northwest  Level FlightAware Approximate
02:31AM -30.9808 133.8520 316° Northwest  Level FlightAware Approximate
02:32AM -30.8878 133.7488 316° Northwest  Level FlightAware Approximate
02:33AM -30.7948 133.6459 316° Northwest  Level FlightAware Approximate
02:33AM -31.6542 134.6080 136° Southeast 39,000  Level Aus ATC (Calculated)
02:34AM -30.8878 133.7488 136° Southeast  Level FlightAware Approximate
02:35AM -31.5603 134.5016 316° Northwest  Level FlightAware Approximate
02:36AM -31.4678 134.3972 316° Northwest  Level FlightAware Approximate
02:37AM -31.3753 134.2929 316° Northwest  Level FlightAware Approximate
02:38AM -31.2826 134.1889 316° Northwest  Level FlightAware Approximate
02:38AM -32.1398 135.1617 316° Northwest 479 551 39,200  Level Aus ATC (RADAR)
02:39AM -32.2013 135.2321 136° Southeast 464 534 39,200  Level Aus ATC (RADAR)
02:39AM -32.2578 135.2908 139° Southeast 465 535 39,200  Level Aus ATC (RADAR)
02:40AM -32.3244 135.3727 134° Southeast 464 534 39,200  Level Aus ATC (RADAR)
02:40AM -32.3617 135.4178 134° Southeast 463 533 39,200  Level Aus ATC (RADAR)
02:41AM -32.4139 135.4811 134° Southeast 463 533 39,200  Level Aus ATC (RADAR)
02:42AM -32.4981 135.5788 136° Southeast 465 535 39,200  Level Aus ATC (RADAR)
02:42AM -32.5361 135.6231 136° Southeast 463 533 39,200  Level Aus ATC (RADAR)
02:43AM -32.5905 135.6843 137° Southeast 464 534 39,200  Level Aus ATC (RADAR)
02:44AM -32.6668 135.7732 136° Southeast 463 533 39,200  Level Aus ATC (RADAR)
02:44AM -32.7152 135.8410 130° Southeast 466 536 39,200  Level Aus ATC (RADAR)
02:45AM -32.7958 135.9243 139° Southeast 463 533 39,200 -240 Level Aus ATC (RADAR)
02:45AM -32.8060 135.9400 122° Southeast 466 536 39,000  Descending FlightAware
02:46AM -32.8322 135.9717 132° Southeast 466 536 39,200 240 Climbing Aus ATC (RADAR)
02:46AM -32.8736 136.0495 122° Southeast 472 543 39,200 -240 Level Aus ATC (RADAR)
02:47AM -32.8980 136.0920 126° Southeast 471 542 39,000 -240 Descending FlightAware
02:47AM -32.9470 136.1800 124° Southeast 471 542 39,000 120 Level FlightAware
02:48AM -32.9907 136.2548 124° Southeast 475 547 39,200 180 Climbing Aus ATC (RADAR)
02:48AM -33.0339 136.3300 124° Southeast 474 545 39,200 -180 Level Aus ATC (RADAR)
02:49AM -33.0890 136.4270 124° Southeast 471 542 39,000  Descending FlightAware
02:50AM -33.1320 136.5035 124° Southeast 476 548 39,200  Climbing Aus ATC (RADAR)
02:50AM -33.1390 136.5160 124° Southeast 471 542 39,000  Descending FlightAware
02:51AM -33.1943 136.6109 124° Southeast 475 547 39,200  Climbing Aus ATC (RADAR)
02:51AM -33.1940 136.6140 124° Southeast 472 543 39,000  Descending FlightAware
02:51AM -33.2242 136.6661 124° Southeast 475 547 39,200  Climbing Aus ATC (RADAR)
02:51AM -33.2430 136.7000 124° Southeast 471 542 39,000 -240 Descending FlightAware
02:52AM -33.2840 136.7740 124° Southeast 470 541 39,000 120 Level FlightAware
02:52AM -33.3335 136.8619 124° Southeast 475 547 39,200 180 Climbing Aus ATC (RADAR)
02:53AM -33.3577 136.9051 124° Southeast 472 543 39,200 -420 Level Aus ATC (RADAR)
02:53AM -33.3640 136.9160 124° Southeast 471 542 39,000  Descending FlightAware
02:53AM -33.3996 136.9810 124° Southeast 471 542 39,200  Climbing Aus ATC (RADAR)
02:54AM -33.4140 137.0060 124° Southeast 469 540 39,000  Descending FlightAware
02:54AM -33.4588 137.0889 124° Southeast 465 535 39,200  Climbing Aus ATC (RADAR)
02:54AM -33.4610 137.0900 124° Southeast 467 537 39,000  Descending FlightAware
02:55AM -33.5022 137.1626 124° Southeast 464 534 39,200  Climbing Aus ATC (RADAR)
02:55AM -33.5090 137.1760 124° Southeast 467 537 39,000  Descending FlightAware
02:56AM -33.5560 137.2602 124° Southeast 468 539 39,200  Climbing Aus ATC (RADAR)
02:56AM -33.5620 137.2710 124° Southeast 468 539 39,000 -240 Descending FlightAware
02:56AM -33.6110 137.3600 123° Southeast 470 541 39,000  Level FlightAware
02:57AM -33.6660 137.4590 124° Southeast 472 543 39,000 120 Level FlightAware
02:58AM -33.7056 137.5317 124° Southeast 471 542 39,200  Climbing Aus ATC (RADAR)
02:58AM -33.7130 137.5450 124° Southeast 472 543 39,000 -240 Descending FlightAware
02:58AM -33.7620 137.6330 124° Southeast 472 543 39,000  Level FlightAware
02:59AM -33.8160 137.7320 123° Southeast 473 544 39,000  Level FlightAware
03:00AM -33.8630 137.8180 123° Southeast 473 544 39,000  Level FlightAware
03:01AM -33.9180 137.9180 124° Southeast 473 544 39,000 120 Level FlightAware
03:01AM -33.9573 137.9919 124° Southeast 472 543 39,200  Climbing Aus ATC (RADAR)
03:01AM -33.9630 138.0020 124° Southeast 473 544 39,000 -240 Descending FlightAware
03:02AM -34.0150 138.0980 123° Southeast 472 543 39,000 120 Level FlightAware
03:03AM -34.0644 138.1899 123° Southeast 471 542 39,200  Climbing Aus ATC (RADAR)
03:03AM -34.0610 138.1830 123° Southeast 472 543 39,000 -300 Descending FlightAware
03:03AM -34.1160 138.2840 123° Southeast 472 543 39,000  Level FlightAware
03:04AM -34.1690 138.3840 123° Southeast 472 543 39,000  Level FlightAware
03:05AM -34.2150 138.4680 124° Southeast 472 543 39,000  Level FlightAware
03:06AM -34.2690 138.5690 123° Southeast 465 535 39,000 120 Level FlightAware
03:06AM -34.3067 138.6415 123° Southeast 468 539 39,200  Climbing Aus ATC (RADAR)
03:06AM -34.3150 138.6560 123° Southeast 463 533 39,000  Descending FlightAware
03:07AM -34.3475 138.7181 123° Southeast 465 535 39,200  Climbing Aus ATC (RADAR)
03:07AM -34.3630 138.7450 123° Southeast 462 532 39,000  Descending FlightAware
03:08AM -34.4116 138.8387 123° Southeast 466 536 39,200  Climbing Aus ATC (RADAR)
03:08AM -34.4170 138.8470 123° Southeast 461 531 39,000  Descending FlightAware
03:08AM -34.4408 138.8932 123° Southeast 465 535 39,200  Climbing Aus ATC (RADAR)
03:08AM -34.4620 138.9320 123° Southeast 459 528 39,000 -240 Descending FlightAware
03:09AM -34.5080 139.0190 123° Southeast 459 528 39,000  Level FlightAware
03:10AM -34.5600 139.1170 123° Southeast 458 527 39,000  Level FlightAware
03:10AM -34.6060 139.2060 122° Southeast 457 526 39,000 120 Level FlightAware
03:11AM -34.6417 139.2750 122° Southeast 460 529 39,200  Climbing Aus ATC (RADAR)
03:11AM -34.6570 139.3020 122° Southeast 456 525 39,000  Descending FlightAware
03:11AM -34.6821 139.3514 122° Southeast 461 531 39,200  Climbing Aus ATC (RADAR)
03:12AM -34.7040 139.3920 122° Southeast 461 531 39,000 -180 Descending FlightAware
03:13AM -34.7550 139.4890 123° Southeast 457 526 39,000 120 Level FlightAware
03:13AM -34.7847 139.5475 123° Southeast 459 528 39,200  Climbing Aus ATC (RADAR)
03:13AM -34.8000 139.5760 123° Southeast 458 527 39,000  Descending FlightAware
03:13AM -34.8243 139.6244 123° Southeast 460 529 39,200  Climbing Aus ATC (RADAR)
03:14AM -34.8520 139.6760 123° Southeast 460 529 39,000  Descending FlightAware
03:14AM -34.8815 139.7345 123° Southeast 461 531 39,200  Climbing Aus ATC (RADAR)
03:15AM -34.8970 139.7640 123° Southeast 460 529 39,000  Descending FlightAware
03:15AM -34.9216 139.8115 123° Southeast 462 532 39,200  Climbing Aus ATC (RADAR)
03:15AM -34.9430 139.8530 123° Southeast 463 533 39,000  Descending FlightAware
03:16AM -34.9729 139.9109 123° Southeast 462 532 39,200  Climbing Aus ATC (RADAR)
03:16AM -34.9940 139.9520 123° Southeast 460 529 39,000 -240 Descending FlightAware
03:17AM -35.0420 140.0440 123° Southeast 464 534 39,000  Level FlightAware
03:17AM -35.0880 140.1350 122° Southeast 464 534 39,000 180 Level FlightAware
03:18AM -35.1147 140.1877 122° Southeast 463 533 39,200  Climbing Aus ATC (RADAR)
03:18AM -35.1380 140.2330 122° Southeast 465 535 39,000  Descending FlightAware
03:19AM -35.1830 140.3211 122° Southeast 464 534 39,200  Climbing Aus ATC (RADAR)
03:19AM -35.1910 140.3390 122° Southeast 461 531 39,000  Descending FlightAware
03:19AM -35.2285 140.4105 122° Southeast 465 535 39,200  Climbing Aus ATC (RADAR)
03:20AM -35.2280 140.4150 122° Southeast 461 531 39,000  Descending FlightAware
03:20AM -35.2683 140.4885 122° Southeast 464 534 39,200  Climbing Aus ATC (RADAR)
03:20AM -35.2650 140.4910 122° Southeast 461 531 39,000  Descending FlightAware
03:21AM -35.3187 140.5890 122° Southeast 462 532 39,200 240 Climbing Aus ATC (RADAR)
03:21AM -35.3469 140.6448 122° Southeast 462 532 39,200  Level Aus ATC (RADAR)
03:22AM -35.3917 140.7342 122° Southeast 461 531 39,200 -180 Level Aus ATC (RADAR)
03:23AM -35.4370 140.8230 122° Southeast 464 534 39,000  Descending FlightAware
03:23AM -35.4705 140.8903 122° Southeast 462 532 39,200  Climbing Aus ATC (RADAR)
03:23AM -35.4750 140.9000 122° Southeast 464 534 39,000  Descending FlightAware
03:24AM -35.5159 140.9795 122° Southeast 461 531 39,200  Climbing Aus ATC (RADAR)
03:24AM -35.5320 141.0130 122° Southeast 465 535 39,000  Descending FlightAware
03:24AM -35.5651 141.0814 122° Southeast 463 533 39,200  Climbing Aus ATC (RADAR)
03:25AM -35.5820 141.1140 122° Southeast 464 534 39,000  Descending FlightAware
03:25AM -35.6106 141.1707 122° Southeast 461 531 39,200 120 Climbing Aus ATC (RADAR)
03:26AM -35.6755 141.3057 121° Southeast 461 531 39,200  Level Aus ATC (RADAR)
03:26AM -35.7034 141.3618 122° Southeast 460 529 39,200 -300 Level Aus ATC (RADAR)
03:27AM -35.7200 141.3930 122° Southeast 463 533 39,000  Descending FlightAware
03:27AM -35.7641 141.4854 122° Southeast 460 529 39,200 180 Climbing Aus ATC (RADAR)
03:28AM -35.7976 141.5524 122° Southeast 459 528 39,200  Level Aus ATC (RADAR)
03:28AM -35.8249 141.6087 121° Southeast 458 527 39,200  Level Aus ATC (RADAR)
03:29AM -35.8626 141.6873 121° Southeast 456 525 39,200  Level Aus ATC (RADAR)
03:30AM -35.9130 141.7875 122° Southeast 457 526 39,200  Level Aus ATC (RADAR)
03:30AM -35.9564 141.8770 121° Southeast 454 522 39,200 -240 Level Aus ATC (RADAR)
03:31AM -35.9770 141.9180 121° Southeast 454 522 39,000  Descending FlightAware
03:31AM -36.0107 141.9888 121° Southeast 454 522 39,200 240 Climbing Aus ATC (RADAR)
03:32AM -36.0372 142.0450 120° Southeast 453 521 39,200 -360 Level Aus ATC (RADAR)
03:32AM -36.0420 142.0520 120° Southeast 454 522 39,000  Descending FlightAware
03:32AM -36.0970 142.1680 120° Southeast 454 522 39,200  Climbing Aus ATC (RADAR)
03:33AM -36.1080 142.1880 120° Southeast 454 522 39,000 120 Descending FlightAware
03:33AM -36.1352 142.2465 120° Southeast 456 525 39,300 420 Climbing Aus ATC (RADAR)
03:33AM -36.1561 142.2919 120° Southeast 455 524 39,300 -480 Level Aus ATC (RADAR)
03:34AM -36.1730 142.3230 120° Southeast 456 525 39,000  Descending FlightAware
03:34AM -36.1940 142.3711 120° Southeast 458 527 39,300  Climbing Aus ATC (RADAR)
03:34AM -36.2220 142.4250 120° Southeast 459 528 39,000  Descending FlightAware
03:35AM -36.2546 142.4956 120° Southeast 460 529 39,300  Climbing Aus ATC (RADAR)
03:35AM -36.2710 142.5280 120° Southeast 463 533 39,000 -300 Descending FlightAware
03:36AM -36.3150 142.6210 120° Southeast 468 539 39,000 300 Level FlightAware
03:36AM -36.3368 142.6682 120° Southeast 464 534 39,300  Climbing Aus ATC (RADAR)
03:37AM -36.3600 142.7140 120° Southeast 466 536 39,000  Descending FlightAware
03:37AM -36.4085 142.8193 120° Southeast 468 539 39,300  Climbing Aus ATC (RADAR)
03:37AM -36.4090 142.8180 120° Southeast 469 540 39,000 -420 Descending FlightAware
03:38AM -36.4490 142.9160 117° Southeast 478 550 39,000 300 Level FlightAware
03:38AM -36.4696 142.9788 117° Southeast 470 541 39,300 -300 Climbing Aus ATC (RADAR)
03:39AM -36.4860 143.0300 117° Southeast 474 545 38,800 -1,140 Descending FlightAware
03:39AM -36.5188 143.1281 117° Southeast 456 525 38,200 -1,500 Descending Aus ATC (RADAR)
03:39AM -36.5190 143.1290 117° Southeast 450 518 37,800 -1,380 Descending FlightAware
03:40AM -36.5452 143.2108 117° Southeast 437 503 37,400 -1,680 Descending Aus ATC (RADAR)
03:40AM -36.5510 143.2260 117° Southeast 435 501 36,700 -3,480 Descending FlightAware
03:40AM -36.5729 143.2921 117° Southeast 433 498 35,400 -2,820 Descending Aus ATC (RADAR)
03:41AM -36.5850 143.3260 117° Southeast 438 504 34,600 -2,160 Descending FlightAware
03:41AM -36.6120 143.4072 117° Southeast 426 490 33,600 -2,280 Descending Aus ATC (RADAR)
03:41AM -36.6110 143.4060 117° Southeast 432 497 33,300 -2,160 Descending FlightAware
03:42AM -36.6305 143.4636 117° Southeast 418 481 32,700 -2,160 Descending Aus ATC (RADAR)
03:42AM -36.6490 143.5230 117° Southeast 417 480 31,500 -1,800 Descending FlightAware
03:43AM -36.6770 143.6090 112° Southeast 397 457 30,600 -1,440 Descending FlightAware
03:43AM -36.6972 143.6682 112° Southeast 386 444 30,000 -1,800 Descending Aus ATC (RADAR)
03:44AM -36.7040 143.6900 112° Southeast 387 445 29,400 -2,100 Descending FlightAware
03:44AM -36.7340 143.7840 112° Southeast 378 435 27,900 -1,920 Descending FlightAware
03:45AM -36.7600 143.8650 112° Southeast 371 427 26,700 -1,680 Descending FlightAware
03:46AM -36.7878 143.9489 112° Southeast 359 413 25,700 -1,800 Descending Aus ATC (RADAR)
03:46AM -36.7850 143.9410 112° Southeast 367 422 25,500 -2,100 Descending FlightAware
03:46AM -36.8140 144.0300 112° Southeast 361 415 24,100 -1,680 Descending FlightAware
03:47AM -36.8312 144.0842 112° Southeast 351 404 23,600 -1,680 Descending Aus ATC (RADAR)
03:47AM -36.8380 144.1050 112° Southeast 352 405 23,000 -1,800 Descending FlightAware
03:47AM -36.8552 144.1588 112° Southeast 342 394 22,400 -1,920 Descending Aus ATC (RADAR)
03:48AM -36.8650 144.1900 112° Southeast 344 396 21,600 -1,860 Descending FlightAware
03:48AM -36.8880 144.2620 112° Southeast 336 387 20,500 -1,500 Descending FlightAware
03:49AM -36.9017 144.3039 112° Southeast 328 377 20,200 -1,620 Descending Aus ATC (RADAR)
03:49AM -36.9130 144.3400 112° Southeast 334 384 19,300 -2,040 Descending FlightAware
03:50AM -36.9340 144.3920 117° Southeast 349 402 18,300 -1,920 Descending FlightAware
03:50AM -36.9699 144.4468 117° Southeast 341 392 17,500 -2,040 Descending Aus ATC (RADAR)
03:51AM -36.9910 144.4770 117° Southeast 337 388 16,600 -2,100 Descending FlightAware
03:51AM -37.0370 144.5420 132° Southeast 327 376 15,200 -1,620 Descending FlightAware
03:52AM -37.0608 144.5764 132° Southeast 320 368 14,800 -1,680 Descending Aus ATC (RADAR)
03:52AM -37.0750 144.5970 132° Southeast 319 367 14,100 -1,680 Descending FlightAware
03:53AM -37.1141 144.6528 132° Southeast 312 359 13,300 -1,260 Descending Aus ATC (RADAR)
03:54AM -37.1700 144.7270 132° Southeast 288 331 12,000 -1,200 Descending FlightAware
03:54AM -37.1890 144.7360 159° South 273 314 11,800 -1,560 Descending FlightAware
03:55AM -37.2390 144.7470 170° South 275 316 10,600 -1,800 Descending FlightAware
03:55AM -37.2680 144.7530 171° South 274 315 9,900 -1,680 Descending FlightAware
03:55AM -37.2890 144.7570 171° South 275 316 9,500 -1,620 Descending FlightAware
03:56AM -37.3280 144.7650 171° South 276 318 8,700 -1,200 Descending FlightAware
03:56AM -37.3650 144.7740 169° South 271 312 8,300 -780 Descending FlightAware
03:57AM -37.3950 144.7820 168° South 272 313 8,000 -600 Descending FlightAware
03:57AM -37.4140 144.7860 171° South 271 312 7,900 -600 Descending FlightAware
03:57AM -37.4440 144.7940 168° South 270 311 7,600 -780 Descending FlightAware
03:58AM -37.4630 144.7980 171° South 269 310 7,400 -840 Descending FlightAware
03:58AM -37.5010 144.8070 169° South 269 310 7,000 -960 Descending FlightAware
03:58AM -37.5200 144.8110 171° South 269 310 6,700 -1,200 Descending FlightAware
03:59AM -37.5490 144.8250 159° South 274 315 6,200 -1,200 Descending FlightAware
03:59AM -37.5600 144.8420 129° Southeast 276 318 5,900 -1,440 Descending FlightAware
03:59AM -37.5650 144.8650 105° East 279 321 5,500 -1,200 Descending FlightAware
04:00AM -37.5670 144.9050 94° East 270 311 5,100 -780 Descending FlightAware
04:00AM -37.5680 144.9300 93° East 261 300 5,000 -540 Descending FlightAware
04:00AM -37.5700 144.9740 93° East 245 282 4,700 -540 Descending FlightAware
04:01AM -37.5730 144.9940 101° East 239 275 4,600 -600 Descending FlightAware
04:01AM -37.5880 145.0220 124° Southeast 226 260 4,300 -780 Descending FlightAware
04:01AM -37.6010 145.0330 146° Southeast 220 253 4,100 -1,020 Descending FlightAware
04:02AM -37.6160 145.0390 162° South 218 251 3,800 -1,200 Descending FlightAware
04:02AM -37.6260 145.0400 175° South 217 250 3,600 -1,200 Descending FlightAware
04:02AM -37.6520 145.0290 199° South 206 237 3,000 -1,200 Descending FlightAware
04:02AM -37.6630 145.0160 223° Southwest 197 227 2,700 -1,020 Descending FlightAware
04:03AM -37.6690 145.0010 243° Southwest 191 220 2,500 -900 Descending FlightAware
04:03AM -37.6690 144.9600 270° West 168 193 1,900 -960 Descending FlightAware
04:04AM -37.6670 144.9370 276° West 150 173 1,500 -960 Descending FlightAware
04:04AM -37.6660 144.9210 275° West 144 166 1,200 -360 Descending FlightAware
04:04AM -37.6651 144.9018 275° West 146 168 1,300 -600 Climbing Aus ATC (RADAR)
04:04AM -37.6650 144.9030 275° West 146 168 1,000 -1,260 Descending FlightAware
04:05AM -37.6640 144.8790 273° West 144 166 600 -840 Descending FlightAware
04:05AM -37.6630 144.8610 274° West 143 165 300 -720 Descending FlightAware
04:06AM -37.6620 144.8410 274° West 140 161 100 -480 Descending FlightAware